메인 페이지
METAR-TAF:

METAR-TAF

공항 :

조지 부시 인터콘티넨털 공항

휴스턴, 텍사스, 미국

위도: 29-59-33N, 경도: 095-21-50W, 고도: 29m

현재 날씨관측

예보는 1 시간 4분 전, 20:53시(UTC)에 발표되었습니다.
서남서6kt
온도 37°C
습도 35%
기압 1013 hPa
시정: 16.1km
고도 18000ft 상공 구름 조금
고도 25000ft 상공 구름 많음

METAR: KIAH 222053Z 25006KT 10SM FEW180 BKN250 37/19 A2990 RMK AO2 SLP124 T03670194 58019

시각: 16:57 (21:57 UTC)

예보

예보는 57분 전, 21:00시(UTC)에 발표되었습니다.
예보 대상 시간: 22일 21시부터 23일 24시까지 (UTC)
남서7kt
시정: 10km
고도 25000ft 상공 구름 보통
23일 1000시부터 (UTC)
남서3kt
시정: 10km
고도 1000ft 상공 구름 많음
23일 1300시부터 (UTC)
5kt
시정: 10km
고도 1500ft 상공 구름 보통
23일 1800시부터 (UTC)
서남서6kt
시정: 10km
고도 25000ft 상공 구름 보통

TAF: KIAH 222100Z 2221/2324 23007KT P6SM SCT250 FM231000 23003KT P6SM BKN010 FM231300 26005KT P6SM SCT015 FM231800 25006KT P6SM SCT250

4,000개 이상의 공항 관측 자료 및 예보 (METAR 및 TAF 보고).

지도상에서 검색 가능한 기상관측소가 노란 점과 빨간 점으로 표시되어 있습니다.

기상관측소 명을 보려면 표시 위로 마우스를 이동하세요.

날씨 관측과 예보를 보려면 클릭하세요.

지도 변경 : 확대하려면 엑스 표시가 있는 녹색 버튼, 축소하려면 빼기 표시가 있는 녹색 버튼, 다음 페이지의 지도를 보려면 녹색 화살표를 클릭하세요.


METAR-TAF: